Time;durP1;ratioP1;P1;durP2;ratioP2;P2;SDS_P1;SDS_P2;PMS_P1;PMS_P2;Temp;Humidity;BMP_temperature;BMP_pressure;BME280_temperature;BME280_humidity;BME280_pressure;Samples;Min_cycle;Max_cycle;Signal;HPM_P1;HPM_P2
2021/07/17 00:01:10;;;;;;;;;19.75;14.50;;;;;17.38;62.75;101752.16;4973821;28;45279;-60
2021/07/17 00:03:36;;;;;;;;;14.75;12.25;;;;;17.33;62.92;101747.31;4973034;28;68621;-60
2021/07/17 00:06:02;;;;;;;;;16.75;12.00;;;;;17.30;63.01;101749.41;4972928;28;67168;-60
2021/07/17 00:08:28;;;;;;;;;12.00;10.75;;;;;17.23;63.26;101753.66;4973963;28;45545;-60
2021/07/17 00:10:53;;;;;;;;;14.75;12.25;;;;;17.17;63.26;101761.28;4973679;28;45408;-61
2021/07/17 00:13:19;;;;;;;;;15.00;11.75;;;;;17.15;63.45;101746.47;4973614;28;45461;-61
2021/07/17 00:15:44;;;;;;;;;12.75;12.75;;;;;17.13;63.46;101753.75;4973746;28;45432;-60
2021/07/17 00:18:10;;;;;;;;;15.00;14.25;;;;;17.10;63.58;101746.06;4973601;28;45453;-60
2021/07/17 00:20:35;;;;;;;;;19.00;14.75;;;;;17.07;63.67;101749.88;4973395;28;45886;-60
2021/07/17 00:23:01;;;;;;;;;12.50;11.00;;;;;17.03;63.66;101754.63;4973857;28;45358;-60
2021/07/17 00:25:26;;;;;;;;;15.00;13.00;;;;;17.00;63.83;101754.09;4971669;28;58278;-60
2021/07/17 00:27:51;;;;;;;;;16.50;13.50;;;;;16.97;64.08;101759.72;4973591;28;45212;-61
2021/07/17 00:30:17;;;;;;;;;15.00;14.50;;;;;16.91;63.65;101746.00;4973191;28;46069;-60
2021/07/17 00:32:43;;;;;;;;;15.00;13.75;;;;;16.89;64.02;101747.97;4973359;28;45335;-60
2021/07/17 00:35:09;;;;;;;;;18.50;13.50;;;;;16.85;64.16;101751.09;4973359;28;45228;-60
2021/07/17 00:37:34;;;;;;;;;14.00;12.25;;;;;16.82;64.41;101759.34;4973301;28;45252;-60
2021/07/17 00:40:00;;;;;;;;;14.50;11.50;;;;;16.77;64.64;101750.00;4972335;28;64385;-60
2021/07/17 00:42:25;;;;;;;;;15.00;12.75;;;;;16.72;64.52;101752.25;4973199;28;45283;-60
2021/07/17 00:44:51;;;;;;;;;16.75;13.00;;;;;16.67;64.73;101754.50;4972578;28;63153;-60
2021/07/17 00:47:17;;;;;;;;;9.75;9.00;;;;;16.64;65.14;101754.81;4972628;28;62439;-60
2021/07/17 00:49:42;;;;;;;;;16.75;14.75;;;;;16.61;65.01;101752.44;4971888;28;45486;-60
2021/07/17 00:52:07;;;;;;;;;20.25;13.75;;;;;16.57;65.35;101754.56;4972349;28;66369;-60
2021/07/17 00:54:33;;;;;;;;;21.25;14.75;;;;;16.51;65.23;101748.97;4972779;28;53681;-59
2021/07/17 00:57:00;;;;;;;;;18.50;17.00;;;;;16.47;65.62;101754.56;4955621;28;45380;-61
2021/07/17 00:59:25;;;;;;;;;21.50;16.25;;;;;16.44;65.90;101751.38;4955627;28;46184;-60
2021/07/17 01:01:51;;;;;;;;;15.25;13.75;;;;;16.38;65.65;101754.63;4955497;28;45338;-60
2021/07/17 01:04:17;;;;;;;;;17.75;13.75;;;;;16.33;65.99;101763.03;4976147;28;45300;-60
2021/07/17 01:06:42;;;;;;;;;15.00;13.00;;;;;16.31;65.96;101754.38;4975329;28;65390;-60
2021/07/17 01:09:07;;;;;;;;;20.50;13.50;;;;;16.29;66.05;101758.97;4974757;28;45985;-60
2021/07/17 01:11:33;;;;;;;;;20.00;15.00;;;;;16.26;66.18;101756.63;4975796;28;48477;-61
2021/07/17 01:13:58;;;;;;;;;17.50;14.25;;;;;16.24;66.13;101756.75;4976078;28;45288;-60
2021/07/17 01:16:24;;;;;;;;;18.00;14.00;;;;;16.20;66.26;101758.00;4975806;28;45328;-61
2021/07/17 01:18:49;;;;;;;;;20.50;17.50;;;;;16.19;66.34;101758.97;4973606;28;74848;-60
2021/07/17 01:21:16;;;;;;;;;20.75;16.25;;;;;16.17;66.55;101759.13;4957526;28;64408;-60
2021/07/17 01:23:41;;;;;;;;;17.50;16.50;;;;;16.14;66.72;101754.13;4974762;28;45419;-59
2021/07/17 01:26:06;;;;;;;;;19.25;14.50;;;;;16.13;66.37;101752.44;4975045;28;66241;-59
2021/07/17 01:28:32;;;;;;;;;17.25;13.75;;;;;16.10;66.77;101750.09;4975526;28;50745;-60
2021/07/17 01:30:57;;;;;;;;;20.50;17.00;;;;;16.09;66.63;101744.94;4975157;28;62209;-60
2021/07/17 01:33:22;;;;;;;;;15.75;15.25;;;;;16.07;66.75;101753.00;4974913;28;65800;-61
2021/07/17 01:35:49;;;;;;;;;19.25;16.00;;;;;16.06;66.88;101746.03;4974697;28;66508;-60
2021/07/17 01:38:14;;;;;;;;;23.00;16.75;;;;;16.04;67.12;101737.41;4975557;28;45415;-60
2021/07/17 01:40:40;;;;;;;;;17.75;15.75;;;;;16.02;66.50;101737.56;4975676;28;45369;-60
2021/07/17 01:43:05;;;;;;;;;21.50;15.75;;;;;16.01;66.82;101738.53;4975323;28;56781;-60
2021/07/17 01:45:35;;;;;;;;;19.00;18.00;;;;;16.01;67.07;101742.97;4974788;28;63105;-60
2021/07/17 01:48:01;;;;;;;;;22.75;18.50;;;;;15.97;67.15;101747.75;4975316;28;45304;-60
2021/07/17 01:50:28;;;;;;;;;25.00;16.50;;;;;15.96;67.23;101745.22;4975404;28;45364;-60
2021/07/17 01:52:53;;;;;;;;;18.50;16.25;;;;;15.93;66.89;101738.41;4977497;27;45309;-61
2021/07/17 01:55:19;;;;;;;;;19.50;17.00;;;;;15.91;67.46;101736.84;4975371;28;45260;-60
2021/07/17 01:57:46;;;;;;;;;18.50;14.50;;;;;15.87;67.48;101753.06;4974185;28;46081;-60
2021/07/17 02:00:12;;;;;;;;;19.25;17.25;;;;;15.85;67.74;101741.72;4975302;28;45824;-60
2021/07/17 02:02:37;;;;;;;;;17.00;14.50;;;;;15.82;67.34;101739.38;4975448;28;45363;-60
2021/07/17 02:05:05;;;;;;;;;20.00;17.00;;;;;15.78;67.68;101745.06;4974665;28;62325;-60
2021/07/17 02:07:32;;;;;;;;;18.25;17.00;;;;;15.76;67.66;101742.56;4975175;28;47000;-60
2021/07/17 02:09:57;;;;;;;;;20.75;17.00;;;;;15.76;67.87;101741.72;4975143;28;48493;-60
2021/07/17 02:12:23;;;;;;;;;24.50;18.25;;;;;15.72;68.33;101738.53;4975394;28;45660;-60
2021/07/17 02:14:49;;;;;;;;;19.75;15.00;;;;;15.67;68.11;101733.63;4974392;28;45577;-60
2021/07/17 02:17:14;;;;;;;;;23.50;19.25;;;;;15.65;68.09;101732.94;4975040;28;46096;-60
2021/07/17 02:19:40;;;;;;;;;18.25;17.75;;;;;15.62;68.33;101733.25;4974197;28;69801;-59
2021/07/17 02:22:05;;;;;;;;;21.25;17.50;;;;;15.60;68.50;101742.28;4974879;28;45347;-61
2021/07/17 02:24:30;;;;;;;;;21.25;17.00;;;;;15.58;68.38;101743.25;4975213;28;45473;-59
2021/07/17 02:26:56;;;;;;;;;18.50;17.00;;;;;15.55;68.64;101726.84;4974056;28;72239;-60
2021/07/17 02:29:21;;;;;;;;;21.00;17.00;;;;;15.52;68.88;101735.88;4975116;28;45301;-60
2021/07/17 02:31:47;;;;;;;;;21.25;17.25;;;;;15.51;69.04;101734.19;4974660;28;56539;-60
2021/07/17 02:34:12;;;;;;;;;18.00;15.50;;;;;15.47;68.85;101727.50;4974971;28;45945;-60
2021/07/17 02:36:38;;;;;;;;;20.50;15.00;;;;;15.45;69.10;101729.47;4974798;28;45477;-60
2021/07/17 02:39:04;;;;;;;;;20.25;17.00;;;;;15.42;69.02;101727.09;4974948;28;45379;-60
2021/07/17 02:41:30;;;;;;;;;16.75;15.75;;;;;15.41;69.32;101726.25;4974952;28;45398;-60
2021/07/17 02:43:56;;;;;;;;;18.00;16.50;;;;;15.39;68.92;101738.81;4974884;28;45387;-61
2021/07/17 02:46:21;;;;;;;;;17.25;14.50;;;;;15.38;69.02;101728.34;4974988;28;45968;-60
2021/07/17 02:48:46;;;;;;;;;21.00;17.75;;;;;15.37;69.61;101724.88;4974043;28;65537;-61
2021/07/17 02:51:12;;;;;;;;;19.50;16.25;;;;;15.36;69.53;101715.25;4976482;28;45311;-60
2021/07/17 02:53:38;;;;;;;;;22.25;18.25;;;;;15.36;69.21;101719.72;4976939;28;45253;-60
2021/07/17 02:56:03;;;;;;;;;23.75;20.75;;;;;15.34;69.54;101725.13;4974494;28;46422;-60
2021/07/17 02:58:29;;;;;;;;;20.50;17.00;;;;;15.33;69.40;101722.63;4976096;28;45282;-60
2021/07/17 03:00:54;;;;;;;;;20.50;16.75;;;;;15.32;69.21;101723.63;4974510;28;45589;-61
2021/07/17 03:03:20;;;;;;;;;22.00;17.25;;;;;15.29;69.44;101722.06;4974742;28;45299;-60
2021/07/17 03:05:45;;;;;;;;;24.00;18.00;;;;;15.28;69.91;101730.97;4974287;28;46570;-60
2021/07/17 03:08:12;;;;;;;;;15.75;15.50;;;;;15.24;69.51;101727.78;4973563;28;72135;-60
2021/07/17 03:10:38;;;;;;;;;21.75;18.50;;;;;15.23;69.92;101738.50;4974526;28;45303;-61
2021/07/17 03:13:03;;;;;;;;;22.00;18.50;;;;;15.19;70.01;101737.09;4974119;28;53130;-60
2021/07/17 03:15:29;;;;;;;;;22.50;17.25;;;;;15.16;70.01;101732.06;4974343;28;45926;-61
2021/07/17 03:17:54;;;;;;;;;18.75;17.75;;;;;15.13;69.92;101738.50;4974319;28;46781;-60
2021/07/17 03:20:20;;;;;;;;;22.50;18.25;;;;;15.11;69.85;101730.66;4974584;28;45406;-60
2021/07/17 03:22:45;;;;;;;;;22.75;18.50;;;;;15.10;69.88;101730.81;4973526;28;65960;-60
2021/07/17 03:25:11;;;;;;;;;19.00;18.00;;;;;15.08;70.60;101730.13;4973213;28;71679;-61
2021/07/17 03:27:36;;;;;;;;;18.75;16.75;;;;;15.07;69.97;101733.75;4974518;28;45494;-60
2021/07/17 03:30:03;;;;;;;;;20.00;16.00;;;;;15.07;70.53;101731.94;4974373;28;45358;-60
2021/07/17 03:32:29;;;;;;;;;15.75;15.75;;;;;15.07;70.20;101731.09;4974370;28;45504;-60
2021/07/17 03:34:55;;;;;;;;;18.75;15.75;;;;;15.07;70.44;101739.03;4974119;28;45454;-60
2021/07/17 03:37:20;;;;;;;;;24.75;17.75;;;;;15.05;70.40;101736.53;4974026;28;45363;-60
2021/07/17 03:39:45;;;;;;;;;20.00;18.50;;;;;15.05;70.52;101736.53;4973194;28;67070;-60
2021/07/17 03:42:11;;;;;;;;;22.50;19.50;;;;;15.04;70.45;101731.38;4974248;28;45304;-61
2021/07/17 03:44:36;;;;;;;;;20.50;18.50;;;;;15.02;70.38;101728.88;4971797;28;72862;-60
2021/07/17 03:47:02;;;;;;;;;24.50;18.75;;;;;15.01;70.64;101728.97;4974074;28;45215;-60
2021/07/17 03:49:28;;;;;;;;;22.75;18.50;;;;;15.01;70.43;101728.97;4973975;28;45523;-60
2021/07/17 03:51:53;;;;;;;;;20.50;18.50;;;;;14.98;70.83;101730.09;4974048;28;45427;-60
2021/07/17 03:54:19;;;;;;;;;22.75;18.25;;;;;14.98;70.49;101730.09;4973712;28;48168;-60
2021/07/17 03:56:44;;;;;;;;;20.25;16.50;;;;;14.99;70.45;101731.78;4973691;28;45371;-60
2021/07/17 03:59:09;;;;;;;;;22.50;17.50;;;;;14.97;70.21;101737.19;4973969;28;45705;-60
2021/07/17 04:01:35;;;;;;;;;22.00;18.75;;;;;14.96;70.86;101729.41;4972915;28;68408;-60
2021/07/17 04:04:00;;;;;;;;;20.75;17.00;;;;;14.95;70.85;101736.50;4973711;28;45590;-61
2021/07/17 04:06:26;;;;;;;;;23.25;19.75;;;;;14.94;70.93;101732.16;4973620;28;45521;-60
2021/07/17 04:08:51;;;;;;;;;23.00;17.00;;;;;14.95;70.75;101731.19;4973841;28;45442;-61
2021/07/17 04:11:17;;;;;;;;;23.75;19.75;;;;;14.92;70.88;101734.13;4971576;28;68435;-60
2021/07/17 04:13:42;;;;;;;;;27.75;21.50;;;;;14.93;71.03;101738.44;4973624;28;45990;-60
2021/07/17 04:16:07;;;;;;;;;18.75;18.00;;;;;14.91;70.66;101737.72;4972605;28;72169;-60
2021/07/17 04:18:33;;;;;;;;;23.50;17.25;;;;;14.89;70.79;101731.75;4972715;28;66085;-60
2021/07/17 04:20:58;;;;;;;;;19.50;18.00;;;;;14.91;70.79;101735.09;4973384;28;45300;-60
2021/07/17 04:23:23;;;;;;;;;27.00;19.00;;;;;14.94;70.60;101737.47;4972706;28;67270;-60
2021/07/17 04:25:49;;;;;;;;;22.25;19.50;;;;;14.96;70.96;101738.16;4973353;28;45318;-60
2021/07/17 04:28:14;;;;;;;;;18.50;17.50;;;;;14.98;71.20;101741.50;4972909;28;57243;-60
2021/07/17 04:30:41;;;;;;;;;19.75;17.00;;;;;15.01;70.88;101744.88;4973421;28;45327;-60
2021/07/17 04:33:06;;;;;;;;;24.50;16.75;;;;;15.03;70.87;101743.78;4972531;28;66950;-60
2021/07/17 04:35:31;;;;;;;;;21.75;17.25;;;;;15.05;70.73;101739.19;4972701;28;65485;-60
2021/07/17 04:37:57;;;;;;;;;20.75;16.00;;;;;15.09;70.46;101747.66;4972603;28;68700;-61
2021/07/17 04:40:22;;;;;;;;;25.00;20.25;;;;;15.13;70.40;101749.09;4976035;28;53796;-60
2021/07/17 04:42:48;;;;;;;;;16.50;15.25;;;;;15.14;70.32;101751.56;4975593;28;64530;-59
2021/07/17 04:45:14;;;;;;;;;18.50;18.00;;;;;15.19;70.48;101759.13;4976289;28;45374;-60
2021/07/17 04:47:39;;;;;;;;;18.50;14.75;;;;;15.23;70.41;101767.63;4976395;28;45324;-60
2021/07/17 04:50:05;;;;;;;;;23.75;15.75;;;;;15.26;70.05;101762.06;4976443;28;45204;-60
2021/07/17 04:52:31;;;;;;;;;20.00;19.00;;;;;15.28;69.84;101763.59;4976270;28;47337;-60
2021/07/17 04:54:56;;;;;;;;;19.00;15.75;;;;;15.33;70.19;101763.19;4975089;28;71394;-61
2021/07/17 04:57:21;;;;;;;;;22.00;16.75;;;;;15.36;69.80;101770.84;4975446;28;61791;-60
2021/07/17 04:59:47;;;;;;;;;16.50;15.25;;;;;15.39;69.90;101767.09;4976044;28;45930;-60
2021/07/17 05:02:12;;;;;;;;;20.75;18.50;;;;;15.42;69.76;101775.59;4976041;28;45357;-60
2021/07/17 05:04:38;;;;;;;;;20.00;16.75;;;;;15.45;69.65;101763.88;4975305;28;65881;-60
2021/07/17 05:07:03;;;;;;;;;26.50;21.00;;;;;15.50;69.46;101771.44;4975292;28;64956;-60
2021/07/17 05:09:28;;;;;;;;;20.25;14.50;;;;;15.51;69.48;101763.34;4975713;28;48760;-61
2021/07/17 05:11:54;;;;;;;;;25.75;21.00;;;;;15.54;69.21;101762.25;4975054;28;68453;-61
2021/07/17 05:14:19;;;;;;;;;20.25;16.50;;;;;15.55;69.04;101764.72;4975855;28;45334;-60
2021/07/17 05:16:45;;;;;;;;;19.75;16.75;;;;;15.51;69.43;101763.34;4975280;28;58470;-60
2021/07/17 05:19:10;;;;;;;;;19.75;16.25;;;;;15.50;69.44;101759.00;4975670;28;51588;-60
2021/07/17 05:21:36;;;;;;;;;25.75;19.75;;;;;15.48;69.54;101758.31;4974353;28;46072;-60
2021/07/17 05:24:02;;;;;;;;;18.75;16.75;;;;;15.45;69.46;101758.59;4975680;28;45220;-61
2021/07/17 05:26:28;;;;;;;;;20.25;14.50;;;;;15.44;69.42;101756.91;4976012;28;45197;-61
2021/07/17 05:28:53;;;;;;;;;21.75;19.25;;;;;15.42;69.57;101759.72;4977390;28;55629;-60
2021/07/17 05:31:19;;;;;;;;;18.50;18.00;;;;;15.41;70.16;101754.53;4974739;28;71429;-60
2021/07/17 05:33:44;;;;;;;;;25.00;17.25;;;;;15.40;69.90;101747.56;4975629;28;45320;-60
2021/07/17 05:36:09;;;;;;;;;21.00;17.00;;;;;15.41;70.37;101746.59;4975505;28;45316;-61
2021/07/17 05:38:35;;;;;;;;;20.25;17.75;;;;;15.42;70.21;101761.50;4975214;28;50245;-60
2021/07/17 05:41:00;;;;;;;;;25.50;20.75;;;;;15.46;69.84;101754.16;4974877;28;69026;-60
2021/07/17 05:43:26;;;;;;;;;21.50;19.00;;;;;15.47;70.30;101759.28;4975454;28;45338;-60
2021/07/17 05:45:53;;;;;;;;;22.50;17.75;;;;;15.48;70.00;101760.97;4975387;28;45356;-60
2021/07/17 05:48:18;;;;;;;;;20.00;20.00;;;;;15.50;70.13;101763.50;4974954;28;45543;-60
2021/07/17 05:50:44;;;;;;;;;20.50;17.25;;;;;15.49;69.93;101754.69;4974515;28;46274;-61
2021/07/17 05:53:09;;;;;;;;;20.25;17.00;;;;;15.51;70.13;101750.09;4975652;28;45302;-60
2021/07/17 05:55:35;;;;;;;;;21.25;17.25;;;;;15.54;70.13;101757.75;4975422;28;45490;-60
2021/07/17 05:58:00;;;;;;;;;22.75;20.25;;;;;15.54;70.59;101749.81;4974644;28;63701;-60
2021/07/17 06:00:26;;;;;;;;;23.25;20.00;;;;;15.55;70.17;101758.63;4974486;28;71130;-60
2021/07/17 06:02:51;;;;;;;;;26.00;19.50;;;;;15.55;70.69;101751.50;4974847;28;56770;-60
2021/07/17 06:05:16;;;;;;;;;25.75;19.50;;;;;15.58;70.69;101761.00;4974872;28;56158;-60
2021/07/17 06:07:42;;;;;;;;;25.75;21.00;;;;;15.62;70.50;101758.88;4974879;28;56871;-60
2021/07/17 06:10:08;;;;;;;;;26.00;23.25;;;;;15.62;70.29;101758.88;4974952;28;50259;-60
2021/07/17 06:12:33;;;;;;;;;26.00;20.25;;;;;15.63;70.59;101752.63;4973856;28;45273;-61
2021/07/17 06:14:59;;;;;;;;;27.50;20.25;;;;;15.65;70.47;101751.47;4974360;28;68285;-60
2021/07/17 06:17:24;;;;;;;;;29.75;24.00;;;;;15.65;70.32;101758.59;4975181;28;45627;-60
2021/07/17 06:19:49;;;;;;;;;27.00;20.75;;;;;15.66;70.56;101763.75;4974347;28;66967;-59
2021/07/17 06:22:15;;;;;;;;;25.25;21.50;;;;;15.70;70.58;101764.31;4976887;28;45362;-60
2021/07/17 06:24:41;;;;;;;;;20.50;18.75;;;;;15.73;70.67;101766.69;4975343;28;45408;-60
2021/07/17 06:27:06;;;;;;;;;29.50;20.50;;;;;15.80;70.86;101777.56;4974695;28;56896;-60
2021/07/17 06:29:32;;;;;;;;;29.75;22.00;;;;;15.80;70.51;101781.06;4974934;28;45298;-61
2021/07/17 06:31:57;;;;;;;;;27.75;21.25;;;;;15.84;70.59;101784.25;4974863;28;45982;-60
2021/07/17 06:34:23;;;;;;;;;22.25;21.00;;;;;15.86;70.69;101777.91;4975041;28;45368;-60
2021/07/17 06:36:49;;;;;;;;;21.25;18.75;;;;;15.90;70.65;101778.44;4974960;28;45253;-61
2021/07/17 06:39:14;;;;;;;;;32.50;24.75;;;;;15.96;70.41;101783.19;4974708;28;45330;-60
2021/07/17 06:41:39;;;;;;;;;25.50;22.75;;;;;16.00;70.34;101781.06;4973885;28;69947;-60
2021/07/17 06:44:05;;;;;;;;;27.00;22.00;;;;;16.03;70.40;101778.13;4974172;28;62906;-60
2021/07/17 06:46:30;;;;;;;;;26.75;19.00;;;;;16.06;70.31;101777.84;4973871;28;65445;-60
2021/07/17 06:48:55;;;;;;;;;23.50;21.00;;;;;16.11;70.27;101780.09;4976668;27;45354;-61
2021/07/17 06:51:21;;;;;;;;;22.75;20.25;;;;;16.15;70.45;101782.31;4973714;28;72379;-61
2021/07/17 06:53:46;;;;;;;;;28.25;26.25;;;;;16.23;70.56;101786.06;4974899;28;45308;-61
2021/07/17 06:56:13;;;;;;;;;23.25;18.50;;;;;16.28;70.41;101787.31;4973859;28;66435;-60
2021/07/17 06:58:38;;;;;;;;;21.00;18.00;;;;;16.35;70.46;101792.88;4974516;28;46022;-60
2021/07/17 07:01:04;;;;;;;;;26.25;22.25;;;;;16.38;70.06;101784.66;4973763;28;45490;-60
2021/07/17 07:03:29;;;;;;;;;25.00;22.50;;;;;16.43;69.95;101789.50;4974194;28;49341;-59
2021/07/17 07:05:57;;;;;;;;;22.00;22.00;;;;;16.49;69.79;101788.94;4973845;28;67429;-60
2021/07/17 07:08:22;;;;;;;;;28.25;18.25;;;;;16.58;69.85;101789.88;4974291;28;45384;-60
2021/07/17 07:10:47;;;;;;;;;23.75;19.75;;;;;16.63;69.44;101790.28;4974517;28;45319;-60
2021/07/17 07:13:14;;;;;;;;;25.00;21.00;;;;;16.69;69.20;101792.34;4974413;28;45390;-59
2021/07/17 07:15:39;;;;;;;;;23.25;20.00;;;;;16.74;69.27;101797.22;4974476;28;45387;-60
2021/07/17 07:18:05;;;;;;;;;19.00;17.75;;;;;16.82;69.16;101799.16;4974188;28;45394;-61
2021/07/17 07:20:30;;;;;;;;;20.25;19.75;;;;;16.88;69.15;101799.41;4974021;28;45446;-60
2021/07/17 07:22:55;;;;;;;;;22.00;18.75;;;;;16.95;68.90;101802.31;4974521;28;45336;-61
2021/07/17 07:25:21;;;;;;;;;21.00;17.25;;;;;17.01;68.86;101801.72;4973881;28;52539;-60
2021/07/17 07:27:47;;;;;;;;;26.00;20.50;;;;;17.08;68.97;101798.50;4974299;28;45915;-60
2021/07/17 07:30:13;;;;;;;;;20.00;16.75;;;;;17.18;68.52;101809.91;4973076;28;45827;-59
2021/07/17 07:32:38;;;;;;;;;29.25;21.75;;;;;17.26;68.24;101817.97;4974627;28;45272;-60
2021/07/17 07:35:04;;;;;;;;;24.00;21.50;;;;;17.31;67.97;101822.81;4973445;28;69333;-60
2021/07/17 07:37:29;;;;;;;;;22.75;20.50;;;;;17.32;67.67;101822.69;4973168;28;70467;-60
2021/07/17 07:39:55;;;;;;;;;25.25;22.00;;;;;17.32;67.85;101819.19;4973298;28;63311;-61
2021/07/17 07:42:21;;;;;;;;;23.00;22.75;;;;;17.32;67.91;101821.84;4974166;28;45325;-60
2021/07/17 07:44:46;;;;;;;;;23.25;19.50;;;;;17.35;68.00;101827.69;4974185;28;45292;-60
2021/07/17 07:47:11;;;;;;;;;28.00;21.00;;;;;17.40;68.02;101821.09;4973212;28;67032;-60
2021/07/17 07:49:37;;;;;;;;;28.00;17.25;;;;;17.46;67.67;101826.66;4973031;28;71543;-60
2021/07/17 07:52:02;;;;;;;;;32.50;22.75;;;;;17.52;67.80;101822.53;4973560;28;61395;-60
2021/07/17 07:54:28;;;;;;;;;27.25;22.00;;;;;17.57;67.79;101830.91;4975436;28;45502;-60
2021/07/17 07:56:53;;;;;;;;;23.50;18.50;;;;;17.62;67.55;101827.81;4973215;28;65943;-60
2021/07/17 07:59:19;;;;;;;;;26.00;24.25;;;;;17.67;67.67;101827.34;4973971;28;45366;-61
2021/07/17 08:01:44;;;;;;;;;27.25;22.75;;;;;17.73;67.49;101829.41;4973735;28;45295;-60
2021/07/17 08:04:10;;;;;;;;;26.75;21.00;;;;;17.78;67.21;101832.44;4973746;28;45307;-60
2021/07/17 08:06:36;;;;;;;;;26.25;22.50;;;;;17.83;66.99;101832.81;4973737;28;46088;-61
2021/07/17 08:09:01;;;;;;;;;28.50;23.50;;;;;17.89;67.14;101828.72;4972833;28;69200;-60
2021/07/17 08:11:27;;;;;;;;;26.50;26.50;;;;;17.93;67.01;101825.59;4972953;28;56557;-60
2021/07/17 08:13:52;;;;;;;;;27.75;22.50;;;;;17.98;66.90;101821.66;4975570;28;62540;-61
2021/07/17 08:16:17;;;;;;;;;29.75;25.75;;;;;18.02;66.80;101823.03;4976251;28;49064;-61
2021/07/17 08:18:43;;;;;;;;;25.50;21.50;;;;;18.06;66.63;101813.75;4976079;28;53272;-60
2021/07/17 08:21:08;;;;;;;;;24.50;18.50;;;;;18.12;66.71;101818.44;4975829;28;59653;-60
2021/07/17 08:23:33;;;;;;;;;23.25;17.50;;;;;18.17;66.37;101826.81;4975764;28;62832;-60
2021/07/17 08:25:59;;;;;;;;;28.75;22.75;;;;;18.24;66.27;101817.22;4976354;28;46110;-60
2021/07/17 08:28:24;;;;;;;;;28.75;22.75;;;;;18.30;66.36;101825.56;5001396;28;45328;-60
2021/07/17 08:30:50;;;;;;;;;31.50;24.75;;;;;18.34;65.93;101817.09;4976864;28;45371;-60
2021/07/17 08:33:15;;;;;;;;;29.75;24.75;;;;;18.34;65.93;101817.09;4977630;28;45138;-60
2021/07/17 08:35:40;;;;;;;;;29.00;21.00;;;;;18.38;65.64;101818.47;4974164;28;64932;-61
2021/07/17 08:38:07;;;;;;;;;25.00;20.50;;;;;18.39;65.83;101820.13;4980634;28;46191;-60
2021/07/17 08:40:32;;;;;;;;;28.75;23.25;;;;;18.43;65.54;101815.34;4994791;28;45453;-60
2021/07/17 08:42:58;;;;;;;;;24.75;19.25;;;;;18.46;65.35;101820.38;4985086;27;45467;-60
2021/07/17 08:45:23;;;;;;;;;19.75;17.75;;;;;18.50;65.89;101826.19;4993264;28;45647;-60
2021/07/17 08:47:50;;;;;;;;;28.50;23.50;;;;;18.58;65.48;101828.91;5013901;28;45436;-60
2021/07/17 08:50:16;;;;;;;;;27.25;26.00;;;;;18.65;65.49;101826.44;5020674;27;45315;-61
2021/07/17 08:52:42;;;;;;;;;28.75;23.00;;;;;18.72;65.12;101830.16;5038140;28;45227;-60
2021/07/17 08:55:09;;;;;;;;;26.75;25.00;;;;;18.79;64.91;101831.19;5008810;28;45373;-60
2021/07/17 08:57:35;;;;;;;;;27.50;22.75;;;;;18.87;64.57;101824.22;5038662;27;45381;-60
2021/07/17 09:00:01;;;;;;;;;23.50;22.25;;;;;18.94;64.43;101823.44;5016195;27;45236;-61
2021/07/17 09:02:27;;;;;;;;;28.25;20.50;;;;;19.01;64.15;101821.00;5000250;28;45371;-60
2021/07/17 09:04:52;;;;;;;;;25.75;20.00;;;;;19.09;64.29;101810.34;5002909;28;45396;-60
2021/07/17 09:07:17;;;;;;;;;22.75;21.00;;;;;19.22;63.82;101812.59;4986866;28;45252;-60
2021/07/17 09:09:43;;;;;;;;;26.50;21.50;;;;;19.30;63.29;101817.09;5044101;28;59371;-61
2021/07/17 09:12:24;;;;;;;;;24.25;20.00;;;;;19.36;63.27;101808.44;5011046;27;61154;-60
2021/07/17 09:14:50;;;;;;;;;22.75;20.00;;;;;19.45;63.33;101811.94;5016701;27;46124;-60
2021/07/17 09:17:25;;;;;;;;;20.00;20.00;;;;;19.56;63.39;101816.16;4997480;28;45972;-61
2021/07/17 09:19:58;;;;;;;;;23.75;20.25;;;;;19.69;63.23;101795.16;4993246;28;45504;-60
2021/07/17 09:22:30;;;;;;;;;23.25;19.75;;;;;19.84;62.36;101799.84;4999143;28;45181;-60
2021/07/17 09:25:06;;;;;;;;;22.50;18.75;;;;;19.98;62.26;101804.53;5014214;28;46233;-61
2021/07/17 09:27:31;;;;;;;;;20.25;18.50;;;;;20.11;60.74;101796.00;5023226;28;45463;-60
2021/07/17 09:29:57;;;;;;;;;24.00;20.00;;;;;20.20;60.39;101794.16;5046917;28;45336;-60
2021/07/17 09:32:23;;;;;;;;;24.25;17.50;;;;;20.27;60.24;101808.50;5022453;28;67326;-60
2021/07/17 09:34:49;;;;;;;;;21.00;18.75;;;;;20.34;60.62;101807.81;5035528;28;45521;-60
2021/07/17 09:37:15;;;;;;;;;21.00;20.25;;;;;20.39;59.42;101802.81;5034489;27;65424;-60
2021/07/17 09:39:44;;;;;;;;;19.25;18.25;;;;;20.41;59.94;101800.81;5059390;28;45418;-60
2021/07/17 09:42:12;;;;;;;;;19.00;17.50;;;;;20.45;59.42;101794.13;5034788;27;45492;-61
2021/07/17 09:44:37;;;;;;;;;18.75;16.75;;;;;20.50;59.69;101794.44;5049839;28;45400;-60
2021/07/17 09:47:15;;;;;;;;;17.50;14.75;;;;;20.53;59.52;101799.44;5024493;28;68762;-61
2021/07/17 09:49:41;;;;;;;;;22.50;19.00;;;;;20.57;59.23;101792.75;5055770;27;45379;-60
2021/07/17 09:52:39;;;;;;;;;21.50;16.75;;;;;20.64;59.02;101795.56;5042308;28;60706;-60
2021/07/17 09:55:06;;;;;;;;;21.50;18.00;;;;;20.67;59.26;101803.22;4980370;28;53306;-60
2021/07/17 09:57:32;;;;;;;;;19.25;15.75;;;;;20.71;58.68;101806.38;4974285;28;45292;-60
2021/07/17 10:00:24;;;;;;;;;23.25;18.00;;;;;20.74;58.54;101803.38;4990902;28;45181;-60
2021/07/17 10:02:53;;;;;;;;;18.75;16.25;;;;;20.78;58.50;101804.72;4980153;28;45405;-60
2021/07/17 10:05:18;;;;;;;;;19.50;19.25;;;;;20.81;57.38;101799.03;5000804;28;46151;-61
2021/07/17 10:07:44;;;;;;;;;18.50;15.25;;;;;20.81;57.50;101803.56;4985299;28;56237;-60
2021/07/17 10:10:09;;;;;;;;;23.00;19.25;;;;;20.79;57.10;101805.56;4988387;28;45488;-60
2021/07/17 10:12:38;;;;;;;;;18.75;16.75;;;;;20.78;57.69;101807.38;4988836;28;48298;-60
2021/07/17 10:15:08;;;;;;;;;17.25;16.50;;;;;20.79;57.21;101810.91;4987561;28;49776;-60
2021/07/17 10:17:38;;;;;;;;;23.75;17.25;;;;;20.81;57.60;101807.03;4994942;27;45485;-61
2021/07/17 10:20:05;;;;;;;;;18.50;14.50;;;;;20.82;57.75;101816.72;5004211;27;45335;-60
2021/07/17 10:22:30;;;;;;;;;16.75;16.50;;;;;20.87;57.78;101819.72;4998165;28;46493;-60
2021/07/17 10:24:55;;;;;;;;;22.00;17.75;;;;;20.90;57.96;101810.53;5002210;28;67171;-61
2021/07/17 10:27:21;;;;;;;;;21.75;17.00;;;;;20.93;56.87;101807.50;5007995;28;45471;-60
2021/07/17 10:29:46;;;;;;;;;20.50;17.75;;;;;20.97;57.26;101808.00;5003141;28;64856;-60
2021/07/17 10:32:12;;;;;;;;;23.25;19.75;;;;;21.02;56.89;101797.63;5004694;28;63212;-60
2021/07/17 10:34:37;;;;;;;;;20.25;16.25;;;;;21.07;56.72;101802.41;5014275;28;64673;-60
2021/07/17 10:37:10;;;;;;;;;18.25;16.75;;;;;21.14;56.58;101798.91;5001631;28;72982;-60
2021/07/17 10:40:02;;;;;;;;;19.50;17.50;;;;;21.22;56.61;101795.34;4963992;28;46828;-58
2021/07/17 10:42:27;;;;;;;;;20.00;17.75;;;;;21.27;56.55;101795.63;4988140;28;45447;-61
2021/07/17 10:44:56;;;;;;;;;19.00;17.50;;;;;21.32;56.59;101792.41;4982010;28;73657;-60
2021/07/17 10:47:21;;;;;;;;;22.00;18.75;;;;;21.35;56.39;101786.72;4987284;28;45937;-60
2021/07/17 10:49:51;;;;;;;;;23.50;21.50;;;;;21.37;56.19;101783.88;5000771;28;45485;-60
2021/07/17 10:52:40;;;;;;;;;22.50;19.25;;;;;21.38;56.34;101789.03;4999078;28;45715;-59
2021/07/17 10:55:25;;;;;;;;;24.75;19.50;;;;;21.44;56.81;101790.19;4990084;28;46206;-60
2021/07/17 10:57:50;;;;;;;;;22.25;17.00;;;;;21.51;56.34;101793.78;4971983;28;46097;-60
2021/07/17 11:00:43;;;;;;;;;25.75;24.25;;;;;21.58;56.46;101783.22;4972434;28;45427;-60
2021/07/17 11:03:29;;;;;;;;;21.25;19.50;;;;;21.64;55.86;101782.56;4987232;28;45515;-60
2021/07/17 11:05:54;;;;;;;;;19.75;17.50;;;;;21.70;55.63;101781.84;4973065;28;45466;-59